Latest Weather Observations for Cunderdin Airport

IDW60801

Issued at 11:35 am WST Friday 22 August 2014 (issued every 30 minutes, with the page automatically refreshed every 10 minutes)

About weather observations | Map of weather stations | Latest weather observations for WA | Other Formats
Station Details ID: 010286 Name: CUNDERDIN AIRFIELD Lat: -31.62 Lon: 117.22 Height: 216.7 m
Data from the previous 72 hours. | See also: Recent months at Cunderdin Airport
Date/Time
WST
Temp
°C
App
Temp
°C
Dew
Point
Rel
Hum
%
Delta-T
°C
Wind Press
QNH
hPa
Press
MSL
hPa
Rain
since 9 am
mm
Dir
 
Spd
km/h
Gust
km/h
Spd
kts
Gust
kts
22/11:30am 15.9 13.0 6.3 53 4.7 S 11 17 6 9 1023.2 1023.4 0.0
22/11:00am 16.3 13.6 9.0 62 3.8 SSW 13 20 7 11 1023.3 1023.5 0.0
22/10:30am 15.4 13.2 9.3 67 3.2 SSW 11 17 6 9 1023.3 1023.5 0.0
22/10:00am 14.9 12.9 10.1 73 2.5 S 11 17 6 9 1023.2 1023.4 0.0
22/09:30am 13.6 11.6 10.2 80 1.8 SW 11 15 6 8 1022.9 1023.1 0.0
22/09:00am 13.1 11.9 11.5 90 0.9 SW 9 13 5 7 1022.8 1023.0 1.6
22/08:30am 11.8 10.9 11.2 96 0.3 W 7 9 4 5 1022.3 1022.5 1.6
22/08:00am 10.7 10.8 10.2 97 0.3 CALM 0 0 0 0 1021.8 1021.9 1.6
22/07:30am 8.8 7.1 8.2 96 0.3 NNW 7 7 4 4 1021.1 1021.2 1.6
22/07:00am 7.0 5.4 6.4 96 0.3 N 4 7 2 4 1020.8 1020.9 1.6
22/06:30am 8.5 6.9 7.9 96 0.3 N 6 7 3 4 1020.5 1020.6 1.6
22/06:00am 8.9 8.5 8.3 96 0.3 CALM 0 0 0 0 1020.0 1020.1 1.6
22/05:30am 8.9 7.8 8.3 96 0.3 N 4 9 2 5 1019.5 1019.6 1.6
22/05:00am 8.6 6.4 7.8 95 0.4 N 9 13 5 7 1018.8 1019.0 1.6
22/04:30am 9.5 7.1 8.7 95 0.4 WNW 11 13 6 7 1018.4 1018.6 1.6
22/04:00am 10.4 7.9 9.6 95 0.4 N 13 15 7 8 1018.0 1018.1 1.6
22/03:30am 11.0 8.6 10.2 95 0.4 WNW 13 15 7 8 1017.7 1017.8 1.6
22/03:00am 11.8 9.3 11.0 95 0.4 NW 15 20 8 11 1017.6 1017.7 1.6
22/02:30am 12.5 10.2 11.9 96 0.3 WNW 15 20 8 11 1017.4 1017.5 1.6
22/02:00am 12.6 9.0 12.0 96 0.3 WNW 22 30 12 16 1017.2 1017.3 1.6
22/01:30am 12.6 10.4 12.0 96 0.3 N 15 19 8 10 1017.2 1017.3 1.6
22/01:00am 12.5 9.9 11.9 96 0.3 N 17 20 9 11 1016.9 1017.0 1.4
22/12:30am 12.9 10.4 12.3 96 0.3 NNW 17 24 9 13 1016.9 1017.0 1.4
22/12:00am 12.8 10.6 12.0 95 0.4 NNW 15 20 8 11 1016.8 1016.9 1.2
 
Date/Time
WST
Temp
°C
App
Temp
°C
Dew
Point
Rel
Hum
%
Delta-T
°C
Wind Press
QNH
hPa
Press
MSL
hPa
Rain
since 9 am
mm
Dir
 
Spd
km/h
Gust
km/h
Spd
kts
Gust
kts
21/11:30pm 12.7 10.1 11.9 95 0.4 NW 17 22 9 12 1016.5 1016.6 1.2
21/11:00pm 12.6 10.4 12.0 96 0.3 N 15 20 8 11 1016.5 1016.6 1.0
21/10:30pm 12.4 10.9 11.8 96 0.3 N 11 15 6 8 1016.3 1016.4 1.0
21/10:00pm 11.9 11.1 11.1 95 0.4 NW 6 11 3 6 1016.4 1016.5 1.0
21/09:30pm 12.3 11.1 11.5 95 0.4 N 9 11 5 6 1016.2 1016.3 1.0
21/09:00pm 13.0 12.4 12.2 95 0.4 N 7 9 4 5 1016.3 1016.4 1.0
21/08:30pm 13.3 11.2 12.4 94 0.5 W 15 24 8 13 1016.3 1016.4 1.0
21/08:00pm 14.5 11.6 12.9 90 0.9 W 20 30 11 16 1016.1 1016.2 0.2
21/07:30pm 14.9 12.5 12.8 87 1.2 W 17 20 9 11 1015.5 1015.6 0.2
21/07:00pm 15.3 12.2 12.2 82 1.7 W 20 28 11 15 1015.0 1015.1 0.2
21/06:30pm 14.3 13.1 11.5 83 1.5 N 9 11 5 6 1014.1 1014.2 0.2
21/06:00pm 14.4 12.3 11.0 80 1.8 N 13 17 7 9 1013.7 1013.8 0.2
21/05:30pm 16.1 13.0 10.4 69 3.0 NNW 17 20 9 11 1013.4 1013.5 0.2
21/05:00pm 17.8 14.4 10.4 62 4.0 NNW 19 24 10 13 1012.9 1013.0 0.2
21/04:30pm 18.7 14.2 10.0 57 4.7 NW 24 32 13 17 1012.7 1012.8 0.2
21/04:00pm 19.1 14.2 9.9 55 5.0 WNW 26 33 14 18 1012.7 1012.8 0.2
21/03:30pm 19.5 14.8 10.5 56 4.9 WNW 26 32 14 17 1012.5 1012.6 0.2
21/03:00pm 19.3 13.4 10.6 57 4.8 W 32 39 17 21 1012.4 1012.5 0.2
21/02:30pm 19.4 13.2 11.4 60 4.4 W 35 46 19 25 1012.1 1012.2 0.2
21/02:00pm 19.6 13.9 11.9 61 4.3 W 33 44 18 24 1012.0 1012.1 0.2
21/01:30pm 18.8 13.9 12.5 67 3.6 W 30 37 16 20 1012.0 1012.1 0.2
21/01:00pm 19.3 13.9 12.8 66 3.7 W 33 44 18 24 1012.0 1012.1 0.2
21/12:30pm 18.4 13.3 13.0 71 3.1 W 32 43 17 23 1012.1 1012.2 0.2
21/12:00pm 18.3 13.7 13.6 74 2.7 WNW 30 39 16 21 1012.3 1012.4 0.2
21/11:30am 19.1 15.2 14.4 74 2.7 WNW 28 41 15 22 1012.3 1012.4 0.2
21/11:00am 18.3 14.2 14.8 80 2.1 WNW 30 41 16 22 1012.6 1012.7 0.2
21/10:30am 16.6 13.0 15.3 92 0.8 WNW 28 39 15 21 1012.7 1012.8 0.2
21/10:00am 17.1 13.2 15.4 90 1.0 N 30 41 16 22 1012.6 1012.7 0.0
21/09:30am 16.2 11.0 14.6 90 0.9 N 35 48 19 26 1012.5 1012.6 0.0
21/09:00am 15.5 11.1 14.2 92 0.7 N 30 41 16 22 1012.1 1012.2 1.2
21/08:30am 14.7 10.5 13.4 92 0.7 N 28 37 15 20 1011.7 1011.8 1.0
21/08:00am 14.2 9.8 12.9 92 0.7 N 28 41 15 22 1011.4 1011.5 0.8
21/07:30am 14.7 11.0 12.7 88 1.1 N 24 33 13 18 1011.3 1011.4 0.0
21/07:00am 14.1 10.3 12.5 90 0.9 N 24 33 13 18 1010.7 1010.8 0.0
21/06:30am 13.8 10.2 12.0 89 1.0 N 22 35 12 19 1011.2 1011.3 0.0
21/06:00am 13.4 10.1 11.6 89 1.0 N 20 33 11 18 1010.9 1011.0 0.0
21/05:30am 13.2 10.4 11.4 89 1.0 N 17 22 9 12 1011.3 1011.4 0.0
21/05:00am 13.8 10.8 12.0 89 1.0 N 19 26 10 14 1011.4 1011.5 0.0
21/04:30am 13.5 11.6 11.9 90 0.9 N 13 17 7 9 1011.8 1011.9 0.0
21/04:00am 13.2 12.0 11.6 90 0.9 N 9 13 5 7 1012.0 1012.1 0.0
21/03:30am 13.2 11.6 11.6 90 0.9 N 11 15 6 8 1012.0 1012.1 0.0
21/03:00am 12.9 11.7 11.6 92 0.7 NNE 9 15 5 8 1012.2 1012.3 0.0
21/02:30am 12.9 11.7 11.5 91 0.8 NNE 9 13 5 7 1012.6 1012.7 0.0
21/02:00am 13.0 11.8 11.7 92 0.7 N 9 13 5 7 1012.9 1013.0 0.0
21/01:30am 12.3 10.2 11.2 93 0.6 N 13 15 7 8 1013.1 1013.2 0.0
21/01:00am 11.2 9.2 10.3 94 0.5 N 11 13 6 7 1013.5 1013.6 0.0
21/12:30am 11.0 8.9 9.9 93 0.6 NNW 11 11 6 6 1013.8 1013.9 0.0
21/12:00am 10.8 8.7 9.7 93 0.6 N 11 13 6 7 1014.1 1014.2 0.0
 
Date/Time
WST
Temp
°C
App
Temp
°C
Dew
Point
Rel
Hum
%
Delta-T
°C
Wind Press
QNH
hPa
Press
MSL
hPa
Rain
since 9 am
mm
Dir
 
Spd
km/h
Gust
km/h
Spd
kts
Gust
kts
20/11:30pm 11.4 9.4 10.1 92 0.7 N 11 11 6 6 1014.3 1014.5 0.0
20/11:00pm 11.9 9.6 10.5 91 0.7 N 13 15 7 8 1014.6 1014.7 0.0
20/10:30pm 12.6 10.5 11.0 90 0.8 NNW 13 17 7 9 1015.1 1015.2 0.0
20/10:00pm 13.5 11.2 11.7 89 1.0 N 15 19 8 10 1015.3 1015.4 0.0
20/09:30pm 13.3 11.4 11.7 90 0.9 NNW 13 17 7 9 1015.6 1015.7 0.0
20/09:00pm 13.1 11.2 11.7 91 0.8 N 13 17 7 9 1015.7 1015.8 0.0
20/08:30pm 12.5 10.0 11.1 91 0.7 N 15 17 8 9 1015.7 1015.8 0.0
20/08:00pm 12.1 9.9 10.7 91 0.7 NNW 13 15 7 8 1015.6 1015.7 0.0
20/07:30pm 12.4 10.2 10.8 90 0.8 N 13 15 7 8 1015.3 1015.4 0.0
20/07:00pm 12.7 10.5 10.9 89 1.0 NNW 13 17 7 9 1015.3 1015.4 0.0
20/06:30pm 13.2 11.9 11.4 89 1.0 N 9 11 5 6 1015.1 1015.2 0.0
20/06:00pm 14.5 14.0 12.7 89 1.0 NNW 7 7 4 4 1014.9 1015.0 0.0
20/05:30pm 16.0 15.1 13.7 86 1.3 W 11 13 6 7 1014.7 1014.8 0.0
20/05:00pm 15.6 12.9 12.9 84 1.5 N 19 26 10 14 1014.7 1014.8 0.0
20/04:30pm 17.3 14.4 12.2 72 2.8 N 19 26 10 14 1014.5 1014.6 0.0
20/04:00pm 17.7 16.1 12.8 73 2.8 N 13 15 7 8 1014.5 1014.6 0.0
20/03:30pm 18.2 14.9 11.7 66 3.6 N 20 26 11 14 1014.2 1014.3 0.0
20/03:00pm 18.3 15.9 12.5 69 3.3 N 17 26 9 14 1014.3 1014.5 0.0
20/02:30pm 18.1 15.1 12.5 70 3.1 N 20 28 11 15 1014.8 1014.9 0.0
20/02:00pm 17.6 15.1 12.3 71 3.0 N 17 22 9 12 1015.1 1015.2 0.0
20/01:30pm 17.5 14.4 12.2 71 3.0 N 20 30 11 16 1015.3 1015.4 0.0
20/01:00pm 18.3 15.7 13.2 72 2.9 N 19 24 10 13 1015.4 1015.5 0.0
20/12:30pm 17.3 14.1 12.0 71 2.9 N 20 24 11 13 1015.8 1015.9 0.0
20/12:00pm 17.7 14.8 12.4 71 3.0 N 19 24 10 13 1016.2 1016.3 0.0
20/11:30am 17.7 14.8 12.4 71 3.0 N 19 24 10 13 1016.5 1016.6 0.0
20/11:00am 17.9 15.2 13.6 76 2.5 N 20 28 11 15 1016.9 1017.0 0.0
20/10:30am 16.7 15.3 13.4 81 1.9 N 13 20 7 11 1017.2 1017.3 0.0
20/10:00am 17.1 18.2 14.7 86 1.4 NNE 2 9 1 5 1017.0 1017.1 0.0
20/09:30am 15.0 15.0 14.2 95 0.5 N 7 9 4 5 1017.2 1017.3 0.0
20/09:00am 14.2 14.2 13.7 97 0.3 N 6 9 3 5 1017.3 1017.4 0.8
20/08:30am 13.6 12.9 13.3 98 0.2 N 9 11 5 6 1017.2 - 0.8
20/08:00am 13.5 12.8 13.2 98 0.2 N 9 13 5 7 1017.2 1017.3 0.8
20/07:30am 12.4 11.7 12.1 98 0.2 N 7 9 4 5 1016.9 - 0.8
20/07:00am 11.4 10.6 10.9 97 0.3 NE 6 6 3 3 1016.9 1017.0 0.8
20/06:30am 11.2 11.1 10.7 97 0.3 ENE 2 7 1 4 1017.0 - 0.8
20/06:00am 11.4 11.7 10.9 97 0.3 CALM 0 0 0 0 1016.8 1016.9 0.8
20/05:30am 11.3 11.6 10.8 97 0.3 CALM 0 0 0 0 1016.7 - 0.8
20/05:00am 11.2 11.1 10.7 97 0.3 ENE 2 6 1 3 1016.4 1016.5 0.8
20/04:30am 10.9 9.7 10.4 97 0.3 ENE 7 7 4 4 1016.5 - 0.8
20/04:00am 10.7 10.4 10.2 97 0.3 NE 2 6 1 3 1016.7 1016.8 0.8
20/03:30am 10.4 9.3 9.9 97 0.3 NE 6 7 3 4 1017.0 - 0.8
20/03:00am 10.2 10.2 9.7 97 0.3 CALM 0 0 0 0 1017.1 1017.2 0.8
20/02:30am 9.8 9.7 9.3 97 0.3 CALM 0 0 0 0 1017.1 - 0.8
20/02:00am 9.6 9.4 9.1 97 0.2 CALM 0 0 0 0 1017.1 1017.2 0.8
20/01:30am 10.3 10.3 9.8 97 0.3 CALM 0 0 0 0 1017.2 - 0.8
20/01:00am 9.8 9.6 9.2 96 0.3 CALM 0 0 0 0 1017.4 1017.5 0.8
20/12:30am 9.2 8.9 8.6 96 0.3 CALM 0 6 0 3 1017.5 - 0.8
20/12:00am 8.5 8.0 7.9 96 0.3 CALM 0 0 0 0 1017.8 1017.9 0.8
 
Date/Time
WST
Temp
°C
App
Temp
°C
Dew
Point
Rel
Hum
%
Delta-T
°C
Wind Press
QNH
hPa
Press
MSL
hPa
Rain
since 9 am
mm
Dir
 
Spd
km/h
Gust
km/h
Spd
kts
Gust
kts
19/11:30pm 9.5 8.9 8.9 96 0.3 W 2 6 1 3 1017.7 - 0.8
19/11:00pm 9.4 7.8 8.6 95 0.4 W 7 7 4 4 1017.8 1017.9 0.8
19/10:30pm 9.5 7.1 8.7 95 0.4 NW 11 11 6 6 1017.9 - 0.8
19/10:00pm 9.7 7.8 8.9 95 0.4 WNW 9 11 5 6 1017.9 1018.0 0.8
19/09:30pm 10.4 8.6 9.6 95 0.4 WNW 9 11 5 6 1017.9 - 0.8
19/09:00pm 11.1 8.4 10.3 95 0.4 NNW 15 15 8 8 1017.7 1017.8 0.8
19/08:30pm 10.6 8.5 9.7 94 0.5 N 11 13 6 7 1017.4 - 0.8
19/08:00pm 11.0 9.7 10.1 94 0.5 N 7 11 4 6 1017.3 1017.4 0.8
19/07:30pm 12.2 11.3 11.3 94 0.5 WNW 7 9 4 5 1017.1 - 0.8
19/07:00pm 12.4 11.5 11.3 93 0.6 W 7 9 4 5 1017.0 1017.1 0.8
19/06:30pm 13.1 12.0 11.8 92 0.7 NNW 9 11 5 6 1016.7 - 0.8
19/06:00pm 14.2 13.6 12.2 88 1.1 N 7 9 4 5 1016.5 1016.6 0.8
19/05:30pm 16.2 15.7 13.7 85 1.4 WNW 9 11 5 6 1016.3 - 0.8
19/05:00pm 16.6 16.6 13.7 83 1.7 W 6 7 3 4 1016.0 1016.1 0.8
19/04:30pm 16.7 16.1 13.4 81 1.9 W 9 13 5 7 1016.1 - 0.8
19/04:00pm 16.8 15.2 12.9 78 2.2 WNW 13 15 7 8 1015.9 1016.0 0.8
19/03:30pm 16.8 16.0 12.9 78 2.2 WNW 9 15 5 8 1016.0 - 0.8
19/03:00pm 17.0 16.8 13.7 81 1.9 W 7 11 4 6 1016.1 1016.2 0.8
19/02:30pm 16.4 15.4 13.3 82 1.8 WSW 11 17 6 9 1016.0 - 0.8
19/02:00pm 15.1 13.6 13.1 88 1.1 WSW 13 17 7 9 1016.0 1016.1 0.8
19/01:30pm 14.4 13.4 12.4 88 1.1 WSW 9 13 5 7 1016.0 - 0.8
19/01:00pm 14.3 12.6 12.5 89 1.0 SW 13 17 7 9 1016.4 1016.5 0.8
19/12:30pm 14.4 12.8 12.8 90 0.9 WSW 13 17 7 9 1016.8 - 0.6
19/12:00pm 16.1 14.7 12.3 78 2.1 W 11 13 6 7 1016.9 1017.0 0.0

Other Formats:

Comma delimited format used in spreadsheet applications
http://www.bom.gov.au/fwo/IDW60801/IDW60801.95625.axf

JavaScript Object Notation format (JSON) in row-major order
http://www.bom.gov.au/fwo/IDW60801/IDW60801.95625.json